Time;durP1;ratioP1;P1;durP2;ratioP2;P2;SDS_P1;SDS_P2;PMS_P1;PMS_P2;Temp;Humidity;BMP_temperature;BMP_pressure;BME280_temperature;BME280_humidity;BME280_pressure;Samples;Min_cycle;Max_cycle;Signal;HPM_P1;HPM_P2
2023/12/25 00:02:26;;;;;;;2.90;2.80;;;10.30;99.90;;;;;;5060379;28;20544;-84
2023/12/25 00:04:55;;;;;;;2.83;2.73;;;10.30;99.90;;;;;;5057771;28;20451;-83
2023/12/25 00:07:23;;;;;;;2.80;2.70;;;10.30;99.90;;;;;;5056021;28;20451;-83
2023/12/25 00:09:53;;;;;;;2.60;2.50;;;10.30;99.90;;;;;;5046998;28;20476;-83
2023/12/25 00:12:23;;;;;;;2.20;2.20;;;10.20;99.90;;;;;;5050458;28;20463;-83
2023/12/25 00:14:51;;;;;;;2.70;2.60;;;10.10;99.90;;;;;;5053312;28;20468;-83
2023/12/25 00:17:20;;;;;;;2.53;2.43;;;10.20;99.90;;;;;;5054383;28;20506;-82
2023/12/25 00:19:48;;;;;;;2.53;2.33;;;10.20;99.90;;;;;;5061100;28;20497;-81
2023/12/25 00:22:16;;;;;;;2.57;2.47;;;10.10;99.90;;;;;;5066175;28;20443;-82
2023/12/25 00:24:45;;;;;;;8.40;2.80;;;10.10;99.90;;;;;;5066323;28;20451;-82
2023/12/25 00:27:14;;;;;;;2.63;2.53;;;10.10;99.90;;;;;;5048750;28;20450;-82
2023/12/25 00:29:42;;;;;;;2.33;2.23;;;10.10;99.90;;;;;;5047656;28;21070;-82
2023/12/25 00:32:11;;;;;;;2.47;2.37;;;10.10;99.90;;;;;;5051462;28;20451;-82
2023/12/25 00:34:39;;;;;;;2.57;2.40;;;10.10;99.90;;;;;;5053120;28;20519;-82
2023/12/25 00:37:07;;;;;;;2.60;2.50;;;10.10;99.90;;;;;;5053252;28;20455;-81
2023/12/25 00:39:35;;;;;;;2.43;2.33;;;10.10;99.90;;;;;;5047055;28;20569;-81
2023/12/25 00:42:04;;;;;;;5.13;2.50;;;10.20;99.90;;;;;;5048428;28;20617;-81
2023/12/25 00:44:34;;;;;;;2.33;2.33;;;10.10;99.90;;;;;;5047872;28;20556;-81
2023/12/25 00:47:02;;;;;;;2.40;2.40;;;10.20;99.90;;;;;;5049030;28;20556;-81
2023/12/25 00:49:30;;;;;;;2.50;2.40;;;10.20;99.90;;;;;;5051950;28;20499;-82
2023/12/25 00:51:59;;;;;;;2.53;2.37;;;10.10;99.90;;;;;;5048210;28;20455;-82
2023/12/25 00:54:31;;;;;;;2.23;2.23;;;10.10;99.90;;;;;;5049236;28;20532;-81
2023/12/25 00:56:59;;;;;;;2.20;2.10;;;10.00;99.90;;;;;;5042558;28;20506;-82
2023/12/25 00:59:28;;;;;;;2.43;2.33;;;10.10;99.90;;;;;;5049986;28;20502;-82
2023/12/25 01:01:58;;;;;;;2.50;2.50;;;10.00;99.90;;;;;;5048544;28;20852;-81
2023/12/25 01:04:26;;;;;;;2.03;1.93;;;10.00;99.90;;;;;;5047316;28;20461;-82
2023/12/25 01:06:54;;;;;;;2.30;2.30;;;9.90;99.90;;;;;;5046628;28;21028;-82
2023/12/25 01:09:22;;;;;;;2.20;2.10;;;9.90;99.90;;;;;;5047867;28;20605;-81
2023/12/25 01:11:50;;;;;;;2.43;2.33;;;9.90;99.90;;;;;;5046601;28;20516;-82
2023/12/25 01:14:19;;;;;;;2.27;2.17;;;10.00;99.90;;;;;;5050766;28;20463;-81
2023/12/25 01:16:47;;;;;;;1.93;1.90;;;10.00;99.90;;;;;;5060926;28;20594;-82
2023/12/25 01:19:16;;;;;;;2.13;2.03;;;10.00;99.90;;;;;;5054715;28;21227;-82
2023/12/25 01:21:45;;;;;;;2.10;2.00;;;10.00;99.90;;;;;;5048908;28;20530;-81
2023/12/25 01:24:13;;;;;;;1.90;1.90;;;10.10;99.90;;;;;;5050948;28;20579;-81
2023/12/25 01:26:41;;;;;;;2.10;2.10;;;10.00;99.90;;;;;;5049992;28;20478;-81
2023/12/25 01:29:09;;;;;;;1.93;1.93;;;10.00;99.90;;;;;;5047872;28;21231;-82
2023/12/25 01:31:37;;;;;;;2.30;2.20;;;10.10;99.90;;;;;;5048275;28;20985;-82
2023/12/25 01:34:06;;;;;;;1.90;1.90;;;10.10;99.90;;;;;;5046830;28;20544;-81
2023/12/25 01:36:38;;;;;;;2.00;1.90;;;10.10;99.90;;;;;;5046756;28;20506;-82
2023/12/25 01:39:06;;;;;;;2.27;2.17;;;10.10;99.90;;;;;;5056025;28;20447;-83
2023/12/25 01:41:35;;;;;;;4.83;2.00;;;10.00;99.90;;;;;;5049920;28;20503;-83
2023/12/25 01:44:03;;;;;;;2.20;2.10;;;10.00;99.90;;;;;;5053017;28;20447;-83
2023/12/25 01:46:42;;;;;;;2.27;2.17;;;10.00;99.90;;;;;;5049773;28;20533;-83
2023/12/25 01:49:09;;;;;;;2.10;2.00;;;10.00;99.90;;;;;;5043744;28;20491;-81
2023/12/25 01:51:40;;;;;;;1.93;1.93;;;10.00;99.90;;;;;;5047129;28;20495;-83
2023/12/25 01:54:08;;;;;;;1.93;1.93;;;10.00;99.90;;;;;;5047096;28;20464;-83
2023/12/25 01:56:36;;;;;;;1.80;1.80;;;10.00;99.90;;;;;;5048579;28;20721;-83
2023/12/25 01:59:05;;;;;;;2.00;1.90;;;10.00;99.90;;;;;;5049152;28;20460;-84
2023/12/25 02:01:32;;;;;;;1.83;1.83;;;10.00;99.90;;;;;;5059770;28;20580;-85
2023/12/25 02:04:01;;;;;;;1.93;1.93;;;10.00;99.90;;;;;;5058509;28;20483;-84
2023/12/25 02:06:30;;;;;;;1.77;1.77;;;9.90;99.90;;;;;;5055947;28;20467;-84
2023/12/25 02:09:01;;;;;;;2.07;2.07;;;9.90;99.90;;;;;;5050491;28;20543;-84
2023/12/25 02:11:29;;;;;;;2.00;1.90;;;10.00;99.90;;;;;;5068169;28;20439;-84
2023/12/25 02:13:59;;;;;;;1.67;1.67;;;9.90;99.90;;;;;;5060118;28;20455;-84
2023/12/25 02:16:28;;;;;;;1.90;1.90;;;9.90;99.90;;;;;;5059285;28;20482;-82
2023/12/25 02:18:56;;;;;;;1.90;1.80;;;9.80;99.90;;;;;;5057406;28;20528;-83
2023/12/25 02:21:25;;;;;;;1.60;1.60;;;9.90;99.90;;;;;;5057007;28;21064;-83
2023/12/25 02:23:59;;;;;;;1.60;1.60;;;9.90;99.90;;;;;;5057611;28;20459;-83
2023/12/25 02:26:29;;;;;;;1.50;1.50;;;9.90;99.90;;;;;;5045480;28;20506;-83
2023/12/25 02:29:01;;;;;;;1.93;1.83;;;9.80;99.90;;;;;;5047053;28;20572;-83
2023/12/25 02:31:30;;;;;;;1.60;1.60;;;9.80;99.90;;;;;;5052382;28;20482;-83
2023/12/25 02:33:59;;;;;;;1.80;1.80;;;9.90;99.90;;;;;;5054738;28;20689;-83
2023/12/25 02:36:27;;;;;;;1.77;1.77;;;9.70;99.90;;;;;;5051694;28;20465;-83
2023/12/25 02:38:56;;;;;;;1.90;1.80;;;9.80;99.90;;;;;;5054728;28;20478;-83
2023/12/25 02:41:25;;;;;;;1.80;1.80;;;9.80;99.90;;;;;;5047114;28;20482;-83
2023/12/25 02:43:55;;;;;;;1.97;1.80;;;9.80;99.90;;;;;;5051864;28;20462;-83
2023/12/25 02:46:23;;;;;;;1.87;1.77;;;9.90;99.90;;;;;;5048900;28;20916;-83
2023/12/25 02:48:51;;;;;;;1.80;1.70;;;9.90;99.90;;;;;;5046853;28;20456;-82
2023/12/25 02:51:19;;;;;;;1.87;1.80;;;9.80;99.90;;;;;;5052912;28;20459;-83
2023/12/25 02:53:48;;;;;;;1.70;1.70;;;9.80;99.90;;;;;;5053519;28;20504;-83
2023/12/25 02:56:16;;;;;;;1.70;1.70;;;9.80;99.90;;;;;;5057432;28;20479;-80
2023/12/25 02:58:44;;;;;;;1.70;1.60;;;9.80;99.90;;;;;;5057374;28;20508;-83
2023/12/25 03:01:14;;;;;;;1.83;1.77;;;9.80;99.90;;;;;;5042955;28;20456;-83
2023/12/25 03:03:42;;;;;;;1.87;1.83;;;9.90;99.90;;;;;;5046155;28;20538;-82
2023/12/25 03:06:10;;;;;;;1.70;1.70;;;9.90;99.90;;;;;;5046343;28;20560;-83
2023/12/25 03:08:38;;;;;;;1.80;1.70;;;9.90;99.90;;;;;;5046594;28;21190;-82
2023/12/25 03:11:07;;;;;;;1.80;1.70;;;10.00;99.90;;;;;;5046636;28;20590;-83
2023/12/25 03:13:36;;;;;;;1.80;1.70;;;10.00;99.90;;;;;;5048488;28;20455;-84
2023/12/25 03:16:05;;;;;;;2.00;1.90;;;10.10;99.90;;;;;;5043410;28;20463;-83
2023/12/25 03:18:35;;;;;;;1.80;1.80;;;10.00;99.90;;;;;;5047294;28;20530;-84
2023/12/25 03:21:04;;;;;;;2.07;1.70;;;10.00;99.90;;;;;;5045354;28;20459;-84
2023/12/25 03:23:32;;;;;;;2.00;1.90;;;10.00;99.90;;;;;;5049450;28;20460;-84
2023/12/25 03:26:00;;;;;;;1.87;1.80;;;9.90;99.90;;;;;;5048086;28;20475;-82
2023/12/25 03:28:29;;;;;;;2.00;1.90;;;9.90;99.90;;;;;;5051405;28;20813;-83
2023/12/25 03:30:58;;;;;;;1.70;1.60;;;9.80;99.90;;;;;;5042310;28;20448;-83
2023/12/25 03:33:26;;;;;;;2.10;2.00;;;9.90;99.90;;;;;;5047262;28;20462;-83
2023/12/25 03:35:56;;;;;;;1.90;1.80;;;9.90;99.90;;;;;;5045397;28;20490;-81
2023/12/25 03:38:24;;;;;;;2.30;2.07;;;9.90;99.90;;;;;;5049105;28;20451;-83
2023/12/25 03:40:52;;;;;;;1.80;1.70;;;9.80;99.90;;;;;;5043432;28;20462;-83
2023/12/25 03:43:23;;;;;;;1.80;1.70;;;9.90;99.90;;;;;;5048833;28;20876;-83
2023/12/25 03:45:52;;;;;;;2.63;1.70;;;9.90;99.90;;;;;;5043576;28;20528;-83
2023/12/25 03:48:21;;;;;;;2.27;1.80;;;9.90;99.90;;;;;;5047214;28;20530;-82
2023/12/25 03:50:49;;;;;;;1.60;1.60;;;9.90;99.90;;;;;;5044978;28;20451;-82
2023/12/25 03:53:19;;;;;;;1.93;1.83;;;9.90;99.90;;;;;;5045816;28;20459;-84
2023/12/25 03:55:47;;;;;;;1.60;1.50;;;9.90;99.90;;;;;;5048567;28;20608;-83
2023/12/25 03:58:15;;;;;;;1.60;1.60;;;9.80;99.90;;;;;;5050570;28;20825;-83
2023/12/25 04:00:44;;;;;;;1.70;1.60;;;9.80;99.90;;;;;;5051768;28;20496;-86
2023/12/25 04:03:12;;;;;;;1.60;1.60;;;9.80;99.90;;;;;;5057692;28;20482;-84
2023/12/25 04:05:41;;;;;;;1.70;1.60;;;9.90;99.90;;;;;;5060905;28;20656;-84
2023/12/25 04:08:09;;;;;;;1.50;1.50;;;9.90;99.90;;;;;;5060054;28;20486;-84
2023/12/25 04:10:39;;;;;;;1.60;1.50;;;9.90;99.90;;;;;;5053920;28;21320;-83
2023/12/25 04:13:07;;;;;;;1.80;1.70;;;9.90;99.90;;;;;;5052879;28;20467;-83
2023/12/25 04:15:36;;;;;;;1.53;1.53;;;9.80;99.90;;;;;;5062832;28;20485;-82
2023/12/25 04:18:04;;;;;;;1.60;1.60;;;9.80;99.90;;;;;;5059313;28;20916;-82
2023/12/25 04:20:33;;;;;;;1.50;1.50;;;9.80;99.90;;;;;;5060842;28;20461;-83
2023/12/25 04:23:01;;;;;;;1.47;1.47;;;9.80;99.90;;;;;;5061558;28;20482;-84
2023/12/25 04:25:29;;;;;;;1.70;1.70;;;9.80;99.90;;;;;;5052639;28;20876;-83
2023/12/25 04:27:59;;;;;;;2.23;1.93;;;9.80;99.90;;;;;;5056865;28;20454;-83
2023/12/25 04:30:27;;;;;;;1.50;1.50;;;9.80;99.90;;;;;;5055372;28;20484;-82
2023/12/25 04:32:55;;;;;;;1.50;1.50;;;9.80;99.90;;;;;;5058036;28;20451;-82
2023/12/25 04:35:24;;;;;;;1.57;1.50;;;9.90;99.90;;;;;;5044993;28;21008;-83
2023/12/25 04:37:52;;;;;;;1.70;1.70;;;9.80;99.90;;;;;;5051325;28;21030;-82
2023/12/25 04:40:21;;;;;;;1.60;1.60;;;9.80;99.90;;;;;;5051872;28;20988;-82
2023/12/25 04:42:49;;;;;;;1.60;1.50;;;9.80;99.90;;;;;;5054761;28;20475;-82
2023/12/25 04:45:19;;;;;;;1.60;1.60;;;9.80;99.90;;;;;;5048308;28;20477;-82
2023/12/25 04:47:48;;;;;;;1.70;1.60;;;9.80;99.90;;;;;;5047323;28;21008;-82
2023/12/25 04:50:16;;;;;;;1.50;1.50;;;9.90;99.90;;;;;;5051520;28;20498;-83
2023/12/25 04:52:45;;;;;;;1.50;1.50;;;9.90;99.90;;;;;;5047757;28;20455;-83
2023/12/25 04:55:13;;;;;;;1.70;1.60;;;9.90;99.90;;;;;;5045998;28;20803;-82
2023/12/25 04:57:41;;;;;;;1.73;1.60;;;10.00;99.90;;;;;;5053319;28;20468;-82
2023/12/25 05:00:12;;;;;;;1.60;1.60;;;10.00;99.90;;;;;;5050591;28;20468;-83
2023/12/25 05:02:41;;;;;;;1.70;1.60;;;10.00;99.90;;;;;;5042462;28;20844;-82
2023/12/25 05:05:10;;;;;;;1.60;1.50;;;9.90;99.90;;;;;;5046198;28;20472;-82
2023/12/25 05:07:38;;;;;;;1.70;1.60;;;10.00;99.90;;;;;;5048078;28;20539;-82
2023/12/25 05:10:07;;;;;;;1.63;1.53;;;10.00;99.90;;;;;;5046481;28;20514;-80
2023/12/25 05:12:35;;;;;;;1.57;1.47;;;9.90;99.90;;;;;;5047937;28;20514;-84
2023/12/25 05:15:04;;;;;;;4.00;1.47;;;9.90;99.90;;;;;;5051458;28;20490;-82
2023/12/25 05:17:33;;;;;;;1.40;1.40;;;9.90;99.90;;;;;;5054151;28;20458;-84
2023/12/25 05:20:04;;;;;;;1.70;1.60;;;9.90;99.90;;;;;;5043284;28;20469;-82
2023/12/25 05:22:32;;;;;;;1.40;1.40;;;9.90;99.90;;;;;;5045929;28;20630;-83
2023/12/25 05:25:01;;;;;;;1.40;1.40;;;9.90;99.90;;;;;;5051949;28;21271;-83
2023/12/25 05:27:30;;;;;;;1.50;1.40;;;9.90;99.90;;;;;;5052098;28;20436;-83
2023/12/25 05:29:58;;;;;;;1.50;1.50;;;9.90;99.90;;;;;;5046840;28;20474;-83
2023/12/25 05:32:28;;;;;;;1.60;1.50;;;9.80;99.90;;;;;;5044124;28;20792;-83
2023/12/25 05:34:57;;;;;;;1.70;1.60;;;9.80;99.90;;;;;;5047460;28;20811;-82
2023/12/25 05:37:27;;;;;;;1.60;1.50;;;9.70;99.90;;;;;;5052243;28;20447;-83
2023/12/25 05:39:55;;;;;;;1.50;1.50;;;9.80;99.90;;;;;;5048476;28;20458;-83
2023/12/25 05:42:24;;;;;;;1.43;1.40;;;9.80;99.90;;;;;;5049769;28;20444;-83
2023/12/25 05:44:52;;;;;;;1.50;1.50;;;9.80;99.90;;;;;;5050197;28;20483;-83
2023/12/25 05:47:20;;;;;;;1.73;1.67;;;9.80;99.90;;;;;;5046380;28;20450;-83
2023/12/25 05:49:49;;;;;;;2.07;1.97;;;9.70;99.90;;;;;;5049973;28;20494;-83
2023/12/25 05:52:17;;;;;;;1.40;1.40;;;9.80;99.90;;;;;;5048655;28;20466;-83
2023/12/25 05:54:47;;;;;;;1.50;1.40;;;9.80;99.90;;;;;;5049885;28;21359;-83
2023/12/25 05:57:15;;;;;;;1.50;1.40;;;9.70;99.90;;;;;;5046737;28;20482;-83
2023/12/25 05:59:43;;;;;;;1.40;1.40;;;9.70;99.90;;;;;;5051290;28;20470;-83
2023/12/25 06:02:13;;;;;;;1.60;1.60;;;9.70;99.90;;;;;;5062595;28;20482;-83
2023/12/25 06:04:41;;;;;;;1.57;1.57;;;9.70;99.90;;;;;;5056773;28;20482;-83
2023/12/25 06:07:11;;;;;;;1.70;1.70;;;9.70;99.90;;;;;;5060370;28;20459;-84
2023/12/25 06:09:39;;;;;;;1.57;1.57;;;9.70;99.90;;;;;;5073574;28;20975;-84
2023/12/25 06:12:09;;;;;;;1.50;1.50;;;9.70;99.90;;;;;;5059011;28;20526;-83
2023/12/25 06:14:38;;;;;;;1.57;1.50;;;9.70;99.90;;;;;;5051640;28;20531;-83
2023/12/25 06:17:06;;;;;;;1.73;1.73;;;9.70;99.90;;;;;;5058863;28;20931;-83
2023/12/25 06:19:34;;;;;;;1.57;1.57;;;9.70;99.90;;;;;;5056622;28;20452;-83
2023/12/25 06:22:03;;;;;;;1.60;1.50;;;9.70;99.90;;;;;;5061762;28;20443;-83
2023/12/25 06:24:32;;;;;;;1.60;1.60;;;9.70;99.90;;;;;;5053224;28;20483;-82
2023/12/25 06:27:00;;;;;;;1.50;1.50;;;9.70;99.90;;;;;;5053544;28;20480;-81
2023/12/25 06:29:30;;;;;;;1.40;1.40;;;9.70;99.90;;;;;;5051595;28;20701;-80
2023/12/25 06:31:59;;;;;;;1.50;1.50;;;9.70;99.90;;;;;;5051350;28;20517;-82
2023/12/25 06:34:27;;;;;;;1.50;1.50;;;9.70;99.90;;;;;;5048592;28;20562;-82
2023/12/25 06:36:56;;;;;;;1.60;1.50;;;9.70;99.90;;;;;;5050033;28;20472;-81
2023/12/25 06:39:24;;;;;;;1.67;1.57;;;9.70;99.90;;;;;;5049000;28;20482;-82
2023/12/25 06:41:52;;;;;;;1.60;1.50;;;9.70;99.90;;;;;;5047451;28;20991;-82
2023/12/25 06:44:20;;;;;;;1.50;1.50;;;9.70;99.90;;;;;;5049453;28;20479;-82
2023/12/25 06:46:50;;;;;;;1.40;1.40;;;9.70;99.90;;;;;;5049109;28;20541;-82
2023/12/25 06:49:18;;;;;;;1.50;1.50;;;9.70;99.90;;;;;;5050871;28;20455;-82
2023/12/25 06:51:47;;;;;;;1.60;1.60;;;9.60;99.90;;;;;;5048417;28;20455;-82
2023/12/25 06:54:14;;;;;;;1.50;1.40;;;9.60;99.90;;;;;;5045936;28;20466;-82
2023/12/25 06:56:43;;;;;;;1.50;1.50;;;9.50;99.90;;;;;;5053901;28;20561;-82
2023/12/25 06:59:12;;;;;;;1.97;1.87;;;9.60;99.90;;;;;;5061343;28;20455;-83
2023/12/25 07:01:40;;;;;;;1.57;1.57;;;9.60;99.90;;;;;;5057077;28;20451;-82
2023/12/25 07:04:11;;;;;;;1.50;1.50;;;9.60;99.90;;;;;;5062565;28;20495;-83
2023/12/25 07:06:40;;;;;;;1.70;1.60;;;9.60;99.90;;;;;;5057735;28;20487;-84
2023/12/25 07:09:14;;;;;;;1.57;1.47;;;9.60;99.90;;;;;;5056501;28;20543;-83
2023/12/25 07:11:42;;;;;;;1.50;1.50;;;9.60;99.90;;;;;;5057210;28;20471;-83
2023/12/25 07:14:11;;;;;;;1.43;1.43;;;9.70;99.90;;;;;;5051335;28;21043;-83
2023/12/25 07:16:40;;;;;;;1.53;1.53;;;9.60;99.90;;;;;;5060316;28;20499;-85
2023/12/25 07:19:09;;;;;;;1.20;1.20;;;9.60;99.90;;;;;;5055586;28;20546;-84
2023/12/25 07:21:38;;;;;;;1.53;1.40;;;9.60;99.90;;;;;;5057044;28;20467;-84
2023/12/25 07:24:07;;;;;;;1.70;1.60;;;9.60;99.90;;;;;;5059827;28;21079;-83
2023/12/25 07:26:35;;;;;;;1.77;1.70;;;9.60;99.90;;;;;;5054129;28;20840;-83
2023/12/25 07:29:04;;;;;;;1.70;1.60;;;9.50;99.90;;;;;;5057935;28;20546;-83
2023/12/25 07:31:33;;;;;;;2.63;1.50;;;9.50;99.90;;;;;;5050479;28;20455;-83
2023/12/25 07:34:01;;;;;;;1.60;1.50;;;9.50;99.90;;;;;;5059262;28;20459;-83
2023/12/25 07:36:32;;;;;;;2.33;1.53;;;9.50;99.90;;;;;;5054501;28;21089;-84
2023/12/25 07:39:01;;;;;;;1.67;1.57;;;9.50;99.90;;;;;;5050354;28;20824;-84
2023/12/25 07:41:29;;;;;;;1.70;1.60;;;9.60;99.90;;;;;;5050078;28;20487;-83
2023/12/25 07:44:00;;;;;;;1.70;1.70;;;9.60;99.90;;;;;;5051350;28;20535;-83
2023/12/25 07:46:29;;;;;;;1.70;1.60;;;9.60;99.90;;;;;;5051662;28;20474;-86
2023/12/25 07:48:57;;;;;;;1.70;1.60;;;9.60;99.90;;;;;;5063927;28;20506;-84
2023/12/25 07:51:26;;;;;;;1.50;1.50;;;9.70;99.90;;;;;;5053605;28;20557;-84
2023/12/25 07:53:56;;;;;;;2.03;1.70;;;9.70;99.90;;;;;;5052029;28;21211;-82
2023/12/25 07:56:25;;;;;;;1.90;1.80;;;9.80;99.90;;;;;;5053235;28;20495;-80
2023/12/25 07:58:54;;;;;;;1.80;1.80;;;9.80;99.90;;;;;;5047753;28;20451;-80
2023/12/25 08:01:23;;;;;;;1.80;1.70;;;9.70;99.90;;;;;;5058444;28;20209;-80
2023/12/25 08:03:51;;;;;;;2.47;2.27;;;9.70;99.90;;;;;;5062584;28;20509;-81
2023/12/25 08:06:20;;;;;;;1.90;1.80;;;9.60;99.90;;;;;;5057704;28;20486;-79
2023/12/25 08:08:49;;;;;;;3.70;2.10;;;9.60;99.90;;;;;;5061013;28;20465;-80
2023/12/25 08:11:19;;;;;;;2.00;1.90;;;9.60;99.90;;;;;;5058867;28;20459;-79
2023/12/25 08:13:49;;;;;;;1.70;1.60;;;9.60;99.90;;;;;;5062078;28;20531;-80
2023/12/25 08:16:17;;;;;;;1.70;1.70;;;9.60;99.90;;;;;;5060238;28;20471;-78
2023/12/25 08:18:46;;;;;;;2.17;2.07;;;9.60;99.90;;;;;;5064050;28;20450;-81
2023/12/25 08:21:16;;;;;;;1.90;1.80;;;9.60;99.90;;;;;;5058560;28;21228;-80
2023/12/25 08:23:44;;;;;;;1.50;1.50;;;9.60;99.90;;;;;;5053923;28;21077;-79
2023/12/25 08:26:13;;;;;;;1.90;1.80;;;9.70;99.90;;;;;;5052950;28;20489;-79
2023/12/25 08:28:43;;;;;;;1.60;1.60;;;9.70;99.90;;;;;;5039680;28;20496;-78
2023/12/25 08:31:11;;;;;;;1.60;1.60;;;9.70;99.90;;;;;;5047517;28;20452;-79
2023/12/25 08:33:39;;;;;;;2.10;2.00;;;9.70;99.90;;;;;;5052125;28;20435;-79
2023/12/25 08:36:08;;;;;;;1.93;1.87;;;9.80;99.90;;;;;;5049136;28;20806;-79
2023/12/25 08:38:37;;;;;;;1.73;1.73;;;9.70;99.90;;;;;;5054244;28;20457;-77
2023/12/25 08:41:06;;;;;;;2.00;1.90;;;9.70;99.90;;;;;;5050388;28;20461;-79
2023/12/25 08:43:34;;;;;;;1.60;1.50;;;9.70;99.90;;;;;;5051506;28;20454;-78
2023/12/25 08:46:05;;;;;;;1.60;1.50;;;9.80;99.90;;;;;;5051033;28;20305;-78
2023/12/25 08:48:33;;;;;;;1.63;1.53;;;9.80;99.90;;;;;;5050589;28;20458;-79
2023/12/25 08:51:02;;;;;;;1.70;1.60;;;9.90;99.90;;;;;;5059312;28;21054;-78
2023/12/25 08:53:31;;;;;;;1.50;1.50;;;9.90;99.90;;;;;;5060245;28;20465;-79
2023/12/25 08:56:00;;;;;;;2.13;2.03;;;10.00;99.90;;;;;;5056982;28;20501;-78
2023/12/25 08:58:29;;;;;;;1.83;1.70;;;10.00;99.90;;;;;;5060637;28;20532;-79
2023/12/25 09:00:58;;;;;;;1.80;1.70;;;10.20;99.90;;;;;;5061089;28;20448;-79
2023/12/25 09:03:27;;;;;;;1.80;1.70;;;10.10;99.90;;;;;;5060478;28;20825;-79
2023/12/25 09:05:56;;;;;;;1.50;1.50;;;10.10;99.90;;;;;;5060546;28;20483;-79
2023/12/25 09:08:25;;;;;;;1.90;1.80;;;10.10;99.90;;;;;;5058446;28;21255;-79
2023/12/25 09:10:53;;;;;;;1.80;1.70;;;10.10;99.90;;;;;;5060290;28;20443;-78
2023/12/25 09:13:22;;;;;;;1.80;1.70;;;10.10;99.90;;;;;;5056690;28;20487;-79
2023/12/25 09:15:50;;;;;;;1.97;1.70;;;10.10;99.90;;;;;;5059996;28;20482;-78
2023/12/25 09:18:18;;;;;;;1.50;1.50;;;10.20;99.90;;;;;;5062476;28;20459;-79
2023/12/25 09:20:48;;;;;;;2.20;2.10;;;10.30;99.90;;;;;;5061488;28;20867;-79
2023/12/25 09:23:18;;;;;;;1.80;1.70;;;10.20;99.90;;;;;;5061476;28;20482;-79
2023/12/25 09:25:47;;;;;;;1.90;1.80;;;10.40;99.90;;;;;;5058770;28;21138;-79
2023/12/25 09:28:16;;;;;;;1.70;1.70;;;10.50;99.90;;;;;;5059089;28;20971;-80
2023/12/25 09:30:45;;;;;;;1.80;1.70;;;10.50;99.90;;;;;;5061172;28;20684;-78
2023/12/25 09:33:13;;;;;;;1.67;1.67;;;10.50;99.90;;;;;;5060513;28;20439;-79
2023/12/25 09:35:42;;;;;;;1.67;1.60;;;10.60;99.90;;;;;;5061485;28;20498;-80
2023/12/25 09:38:12;;;;;;;1.70;1.70;;;10.70;99.90;;;;;;5064778;28;20459;-79
2023/12/25 09:40:40;;;;;;;1.77;1.77;;;10.70;99.90;;;;;;5065043;28;20542;-79
2023/12/25 09:43:10;;;;;;;1.83;1.80;;;10.70;99.90;;;;;;5064680;28;20558;-79
2023/12/25 09:45:39;;;;;;;1.90;1.80;;;10.80;99.90;;;;;;5059765;28;20483;-79
2023/12/25 09:48:08;;;;;;;1.93;1.83;;;10.80;99.90;;;;;;5060398;28;20870;-81
2023/12/25 09:50:39;;;;;;;1.90;1.80;;;10.90;99.90;;;;;;5065533;28;20450;-80
2023/12/25 09:53:08;;;;;;;1.80;1.80;;;10.90;99.90;;;;;;5065347;28;20432;-80
2023/12/25 09:55:38;;;;;;;2.10;2.00;;;11.10;99.90;;;;;;5062040;28;20467;-79
2023/12/25 09:58:10;;;;;;;1.90;1.90;;;11.40;99.90;;;;;;5065513;28;20455;-80
2023/12/25 10:00:39;;;;;;;1.80;1.80;;;11.60;99.90;;;;;;5070156;28;20951;-81
2023/12/25 10:03:08;;;;;;;2.10;2.00;;;11.70;99.90;;;;;;5063326;28;20502;-82
2023/12/25 10:05:37;;;;;;;2.00;1.80;;;11.80;99.90;;;;;;5059862;28;20494;-81
2023/12/25 10:08:06;;;;;;;2.10;2.00;;;11.90;99.90;;;;;;5063494;28;20521;-83
2023/12/25 10:10:36;;;;;;;2.20;2.10;;;12.00;99.90;;;;;;5060320;28;20576;-82
2023/12/25 10:13:06;;;;;;;1.97;1.97;;;12.20;99.90;;;;;;5062718;28;20469;-81
2023/12/25 10:15:35;;;;;;;1.80;1.80;;;12.30;99.90;;;;;;5065335;28;20858;-82
2023/12/25 10:18:05;;;;;;;1.87;1.77;;;12.40;99.90;;;;;;5062754;28;20467;-81
2023/12/25 10:20:34;;;;;;;1.70;1.70;;;12.60;99.90;;;;;;5064384;28;21058;-82
2023/12/25 10:23:12;;;;;;;1.77;1.77;;;12.90;99.90;;;;;;5062019;28;20477;-82
2023/12/25 10:25:50;;;;;;;2.50;2.40;;;13.00;99.90;;;;;;5062298;28;20611;-82
2023/12/25 10:28:21;;;;;;;2.40;2.30;;;13.50;99.90;;;;;;5061831;28;20470;-82
2023/12/25 10:31:02;;;;;;;2.23;2.13;;;14.00;99.90;;;;;;5054422;28;20485;-84
2023/12/25 10:33:32;;;;;;;1.97;1.97;;;14.10;99.90;;;;;;5061792;28;21357;-83
2023/12/25 10:36:03;;;;;;;1.93;1.93;;;14.10;99.90;;;;;;5055646;28;20979;-82
2023/12/25 10:38:34;;;;;;;1.90;1.90;;;14.60;99.90;;;;;;5056294;28;20448;-84
2023/12/25 10:41:26;;;;;;;1.87;1.87;;;14.90;99.90;;;;;;5059234;28;20482;-83
2023/12/25 10:43:57;;;;;;;2.20;2.10;;;14.20;99.90;;;;;;5058156;28;20455;-83
2023/12/25 10:46:27;;;;;;;2.10;2.00;;;14.70;99.90;;;;;;5057324;28;20478;-82
2023/12/25 10:48:56;;;;;;;1.70;1.70;;;15.20;99.90;;;;;;5064747;28;20479;-81
2023/12/25 10:51:30;;;;;;;2.13;2.03;;;14.60;99.90;;;;;;5062650;28;20439;-82
2023/12/25 10:54:02;;;;;;;2.03;2.00;;;14.40;99.90;;;;;;5058519;28;20468;-82
2023/12/25 10:56:34;;;;;;;1.83;1.83;;;14.10;99.90;;;;;;5059312;28;20473;-81
2023/12/25 10:59:13;;;;;;;1.90;1.80;;;14.00;99.90;;;;;;5057987;28;20526;-82
2023/12/25 11:01:45;;;;;;;1.90;1.80;;;14.00;99.90;;;;;;5058707;28;20443;-82
2023/12/25 11:04:15;;;;;;;2.20;2.10;;;14.00;99.90;;;;;;5060062;28;20873;-82
2023/12/25 11:06:47;;;;;;;1.90;1.90;;;14.10;99.90;;;;;;5054066;28;20471;-82
2023/12/25 11:09:17;;;;;;;2.60;2.00;;;14.10;99.90;;;;;;5063736;28;20452;-81
2023/12/25 11:11:46;;;;;;;2.30;2.20;;;14.20;99.90;;;;;;5058782;28;20463;-81
2023/12/25 11:14:17;;;;;;;1.90;1.80;;;14.40;99.90;;;;;;5063802;28;21014;-81
2023/12/25 11:16:47;;;;;;;2.07;2.00;;;14.30;99.90;;;;;;5064627;28;20494;-82
2023/12/25 11:19:16;;;;;;;2.10;2.00;;;14.10;99.90;;;;;;5065975;28;20483;-84
2023/12/25 11:21:45;;;;;;;1.90;1.80;;;14.00;99.90;;;;;;5059014;28;20462;-82
2023/12/25 11:24:13;;;;;;;1.80;1.80;;;13.90;99.90;;;;;;5061887;28;20447;-83
2023/12/25 11:26:44;;;;;;;2.20;2.10;;;14.00;99.90;;;;;;5053718;28;20496;-83
2023/12/25 11:29:13;;;;;;;2.37;2.23;;;13.80;99.90;;;;;;5053527;28;20447;-81
2023/12/25 11:31:45;;;;;;;1.90;1.90;;;13.50;99.90;;;;;;5062908;28;20454;-82
2023/12/25 11:34:22;;;;;;;2.10;2.00;;;13.50;99.90;;;;;;5056935;28;20452;-81
2023/12/25 11:36:55;;;;;;;2.07;2.00;;;13.30;99.90;;;;;;5061728;28;20466;-82
2023/12/25 11:39:26;;;;;;;2.00;2.00;;;13.10;99.90;;;;;;5058518;28;20447;-81
2023/12/25 11:41:54;;;;;;;2.30;2.20;;;13.00;99.90;;;;;;5063006;28;20543;-83
2023/12/25 11:44:31;;;;;;;2.00;2.00;;;13.00;99.90;;;;;;5061583;28;20984;-81
2023/12/25 11:47:03;;;;;;;2.20;2.10;;;13.00;99.90;;;;;;5054452;28;20494;-82
2023/12/25 11:49:33;;;;;;;1.90;1.90;;;12.90;99.90;;;;;;5060271;28;20487;-84
2023/12/25 11:52:03;;;;;;;3.60;2.10;;;12.80;99.90;;;;;;5064304;28;20455;-81
2023/12/25 11:54:32;;;;;;;2.00;2.00;;;12.60;99.90;;;;;;5063973;28;20824;-82
2023/12/25 11:57:16;;;;;;;3.33;2.57;;;12.60;99.90;;;;;;5062220;28;20486;-82
2023/12/25 11:59:46;;;;;;;4.40;2.30;;;12.50;99.90;;;;;;5063468;28;20801;-81
2023/12/25 12:02:17;;;;;;;2.20;2.20;;;12.40;99.90;;;;;;5063322;28;20443;-81
2023/12/25 12:04:46;;;;;;;2.50;2.40;;;12.40;99.90;;;;;;5059454;28;20534;-82
2023/12/25 12:07:16;;;;;;;2.37;2.27;;;12.40;99.90;;;;;;5050861;28;20566;-81
2023/12/25 12:09:44;;;;;;;2.43;2.33;;;12.30;99.90;;;;;;5061994;28;20455;-80
2023/12/25 12:12:13;;;;;;;3.23;2.50;;;12.30;99.90;;;;;;5066706;28;20451;-80
2023/12/25 12:14:42;;;;;;;2.30;2.30;;;12.30;99.90;;;;;;5064364;28;20824;-80
2023/12/25 12:17:11;;;;;;;1.90;1.90;;;12.30;99.90;;;;;;5061958;28;20502;-81
2023/12/25 12:19:41;;;;;;;1.80;1.80;;;12.20;99.90;;;;;;5062454;28;20459;-80
2023/12/25 12:22:09;;;;;;;2.20;2.20;;;12.10;99.90;;;;;;5068356;28;20451;-80
2023/12/25 12:24:38;;;;;;;1.80;1.80;;;12.10;99.90;;;;;;5068165;28;20987;-80
2023/12/25 12:27:08;;;;;;;2.40;2.30;;;12.00;99.90;;;;;;5066016;28;20606;-80
2023/12/25 12:29:36;;;;;;;2.30;2.20;;;12.10;99.90;;;;;;5064689;28;20431;-82
2023/12/25 12:32:06;;;;;;;1.93;1.93;;;12.10;99.90;;;;;;5062484;28;20549;-81
2023/12/25 12:34:35;;;;;;;2.37;2.27;;;12.10;99.90;;;;;;5064684;28;20481;-81
2023/12/25 12:37:07;;;;;;;1.90;1.90;;;12.00;99.90;;;;;;5061756;28;20492;-81
2023/12/25 12:39:35;;;;;;;2.30;2.20;;;12.00;99.90;;;;;;5068727;28;20443;-81
2023/12/25 12:42:09;;;;;;;2.30;2.20;;;12.00;99.90;;;;;;5063248;28;20447;-82
2023/12/25 12:44:38;;;;;;;2.30;2.20;;;12.00;99.90;;;;;;5068761;28;20459;-81
2023/12/25 12:47:08;;;;;;;2.17;2.07;;;12.00;99.90;;;;;;5066480;28;20563;-81
2023/12/25 12:49:36;;;;;;;2.37;1.87;;;12.00;99.90;;;;;;5063163;28;20458;-80
2023/12/25 12:52:07;;;;;;;2.10;2.10;;;11.90;99.90;;;;;;5064818;28;20452;-81
2023/12/25 12:54:35;;;;;;;2.10;2.00;;;12.00;99.90;;;;;;5084612;28;21071;-80
2023/12/25 12:57:04;;;;;;;1.70;1.70;;;12.00;99.90;;;;;;5063807;28;20491;-82
2023/12/25 12:59:33;;;;;;;1.90;1.90;;;12.00;99.90;;;;;;5066147;28;20474;-81
2023/12/25 13:02:01;;;;;;;1.80;1.80;;;12.00;99.90;;;;;;5068163;28;20530;-81
2023/12/25 13:04:30;;;;;;;2.13;2.13;;;12.00;99.90;;;;;;5065900;28;20512;-81